sensor_id;sensor_type;location;lat;lon;timestamp;P1;durP1;ratioP1;P2;durP2;ratioP2
1004;SDS011;491;53.480;10.174;2023-07-29T00:01:44;4.47;;;3.57;;
1004;SDS011;491;53.480;10.174;2023-07-29T00:04:11;4.57;;;3.90;;
1004;SDS011;491;53.480;10.174;2023-07-29T00:06:37;4.07;;;3.67;;
1004;SDS011;491;53.480;10.174;2023-07-29T00:09:03;4.47;;;3.67;;
1004;SDS011;491;53.480;10.174;2023-07-29T00:11:29;3.70;;;3.40;;
1004;SDS011;491;53.480;10.174;2023-07-29T00:13:55;5.50;;;3.77;;
1004;SDS011;491;53.480;10.174;2023-07-29T00:16:21;4.27;;;3.37;;
1004;SDS011;491;53.480;10.174;2023-07-29T00:18:47;3.97;;;3.40;;
1004;SDS011;491;53.480;10.174;2023-07-29T00:21:13;5.10;;;3.13;;
1004;SDS011;491;53.480;10.174;2023-07-29T00:23:39;3.57;;;2.60;;
1004;SDS011;491;53.480;10.174;2023-07-29T00:26:05;4.30;;;3.90;;
1004;SDS011;491;53.480;10.174;2023-07-29T00:28:31;4.13;;;2.33;;
1004;SDS011;491;53.480;10.174;2023-07-29T00:31:01;4.63;;;3.20;;
1004;SDS011;491;53.480;10.174;2023-07-29T00:33:27;5.13;;;4.07;;
1004;SDS011;491;53.480;10.174;2023-07-29T00:35:53;4.67;;;3.80;;
1004;SDS011;491;53.480;10.174;2023-07-29T00:38:19;6.17;;;3.60;;
1004;SDS011;491;53.480;10.174;2023-07-29T00:40:45;4.47;;;3.40;;
1004;SDS011;491;53.480;10.174;2023-07-29T00:43:11;4.03;;;3.63;;
1004;SDS011;491;53.480;10.174;2023-07-29T00:45:37;3.67;;;3.37;;
1004;SDS011;491;53.480;10.174;2023-07-29T00:48:04;3.70;;;3.30;;
1004;SDS011;491;53.480;10.174;2023-07-29T00:50:30;4.87;;;3.10;;
1004;SDS011;491;53.480;10.174;2023-07-29T00:52:58;5.33;;;4.30;;
1004;SDS011;491;53.480;10.174;2023-07-29T00:55:24;5.80;;;3.40;;
1004;SDS011;491;53.480;10.174;2023-07-29T00:57:50;7.37;;;4.67;;
1004;SDS011;491;53.480;10.174;2023-07-29T01:00:19;5.17;;;4.23;;
1004;SDS011;491;53.480;10.174;2023-07-29T01:02:45;5.90;;;5.07;;
1004;SDS011;491;53.480;10.174;2023-07-29T01:05:11;5.87;;;5.13;;
1004;SDS011;491;53.480;10.174;2023-07-29T01:07:49;7.97;;;5.90;;
1004;SDS011;491;53.480;10.174;2023-07-29T01:10:29;6.00;;;5.13;;
1004;SDS011;491;53.480;10.174;2023-07-29T01:13:05;5.30;;;4.87;;
1004;SDS011;491;53.480;10.174;2023-07-29T01:15:33;6.37;;;4.97;;
1004;SDS011;491;53.480;10.174;2023-07-29T01:18:03;5.70;;;5.00;;
1004;SDS011;491;53.480;10.174;2023-07-29T01:20:31;4.97;;;4.57;;
1004;SDS011;491;53.480;10.174;2023-07-29T01:22:58;8.60;;;5.50;;
1004;SDS011;491;53.480;10.174;2023-07-29T01:25:24;6.67;;;5.97;;
1004;SDS011;491;53.480;10.174;2023-07-29T01:27:50;6.30;;;5.70;;
1004;SDS011;491;53.480;10.174;2023-07-29T01:30:16;7.33;;;6.47;;
1004;SDS011;491;53.480;10.174;2023-07-29T01:32:48;6.63;;;6.03;;
1004;SDS011;491;53.480;10.174;2023-07-29T01:35:23;6.00;;;5.40;;
1004;SDS011;491;53.480;10.174;2023-07-29T01:37:55;8.50;;;6.80;;
1004;SDS011;491;53.480;10.174;2023-07-29T01:40:25;7.03;;;6.33;;
1004;SDS011;491;53.480;10.174;2023-07-29T01:42:52;6.33;;;5.73;;
1004;SDS011;491;53.480;10.174;2023-07-29T01:45:24;7.17;;;6.53;;
1004;SDS011;491;53.480;10.174;2023-07-29T01:47:50;7.30;;;6.60;;
1004;SDS011;491;53.480;10.174;2023-07-29T01:50:16;7.30;;;6.60;;
1004;SDS011;491;53.480;10.174;2023-07-29T01:52:42;8.73;;;7.23;;
1004;SDS011;491;53.480;10.174;2023-07-29T01:55:08;7.83;;;7.13;;
1004;SDS011;491;53.480;10.174;2023-07-29T01:57:34;8.13;;;6.90;;
1004;SDS011;491;53.480;10.174;2023-07-29T02:00:00;8.43;;;7.50;;
1004;SDS011;491;53.480;10.174;2023-07-29T02:02:27;5.70;;;4.87;;
1004;SDS011;491;53.480;10.174;2023-07-29T02:04:53;9.50;;;6.80;;
1004;SDS011;491;53.480;10.174;2023-07-29T02:07:20;9.03;;;6.77;;
1004;SDS011;491;53.480;10.174;2023-07-29T02:09:46;9.97;;;6.90;;
1004;SDS011;491;53.480;10.174;2023-07-29T02:12:12;8.20;;;6.43;;
1004;SDS011;491;53.480;10.174;2023-07-29T02:14:38;7.00;;;6.30;;
1004;SDS011;491;53.480;10.174;2023-07-29T02:17:04;7.73;;;6.70;;
1004;SDS011;491;53.480;10.174;2023-07-29T02:19:33;7.80;;;7.00;;
1004;SDS011;491;53.480;10.174;2023-07-29T02:21:59;7.93;;;6.60;;
1004;SDS011;491;53.480;10.174;2023-07-29T02:24:25;8.57;;;6.57;;
1004;SDS011;491;53.480;10.174;2023-07-29T02:26:51;8.03;;;6.40;;
1004;SDS011;491;53.480;10.174;2023-07-29T02:29:17;8.13;;;7.40;;
1004;SDS011;491;53.480;10.174;2023-07-29T02:31:43;9.53;;;7.90;;
1004;SDS011;491;53.480;10.174;2023-07-29T02:34:09;7.63;;;6.90;;
1004;SDS011;491;53.480;10.174;2023-07-29T02:36:35;7.70;;;6.90;;
1004;SDS011;491;53.480;10.174;2023-07-29T02:39:00;8.70;;;7.90;;
1004;SDS011;491;53.480;10.174;2023-07-29T02:41:26;7.73;;;7.03;;
1004;SDS011;491;53.480;10.174;2023-07-29T02:43:52;8.33;;;7.50;;
1004;SDS011;491;53.480;10.174;2023-07-29T02:46:18;9.37;;;7.30;;
1004;SDS011;491;53.480;10.174;2023-07-29T02:48:44;7.97;;;7.17;;
1004;SDS011;491;53.480;10.174;2023-07-29T02:51:10;7.37;;;6.67;;
1004;SDS011;491;53.480;10.174;2023-07-29T02:53:36;8.07;;;7.37;;
1004;SDS011;491;53.480;10.174;2023-07-29T02:56:02;7.03;;;6.37;;
1004;SDS011;491;53.480;10.174;2023-07-29T02:58:28;7.30;;;6.60;;
1004;SDS011;491;53.480;10.174;2023-07-29T03:01:03;7.50;;;6.37;;
1004;SDS011;491;53.480;10.174;2023-07-29T03:03:30;7.77;;;7.07;;
1004;SDS011;491;53.480;10.174;2023-07-29T03:06:29;7.20;;;6.07;;
1004;SDS011;491;53.480;10.174;2023-07-29T03:08:51;7.43;;;6.50;;
1004;SDS011;491;53.480;10.174;2023-07-29T03:11:17;197.63;;;29.93;;
1004;SDS011;491;53.480;10.174;2023-07-29T03:13:43;6.73;;;3.90;;
1004;SDS011;491;53.480;10.174;2023-07-29T03:16:10;6.47;;;5.77;;
1004;SDS011;491;53.480;10.174;2023-07-29T03:18:36;7.10;;;5.93;;
1004;SDS011;491;53.480;10.174;2023-07-29T03:21:02;7.93;;;7.13;;
1004;SDS011;491;53.480;10.174;2023-07-29T03:23:28;6.30;;;4.70;;
1004;SDS011;491;53.480;10.174;2023-07-29T03:25:58;6.90;;;5.40;;
1004;SDS011;491;53.480;10.174;2023-07-29T03:28:25;12.20;;;8.17;;
1004;SDS011;491;53.480;10.174;2023-07-29T03:30:52;9.40;;;8.27;;
1004;SDS011;491;53.480;10.174;2023-07-29T03:33:18;9.33;;;8.23;;
1004;SDS011;491;53.480;10.174;2023-07-29T03:35:44;9.00;;;7.53;;
1004;SDS011;491;53.480;10.174;2023-07-29T03:38:11;9.20;;;8.30;;
1004;SDS011;491;53.480;10.174;2023-07-29T03:40:37;9.80;;;8.90;;
1004;SDS011;491;53.480;10.174;2023-07-29T03:43:03;8.30;;;7.50;;
1004;SDS011;491;53.480;10.174;2023-07-29T03:45:29;9.63;;;8.13;;
1004;SDS011;491;53.480;10.174;2023-07-29T03:47:55;10.27;;;7.80;;
1004;SDS011;491;53.480;10.174;2023-07-29T03:50:21;10.30;;;8.30;;
1004;SDS011;491;53.480;10.174;2023-07-29T03:52:47;9.40;;;7.97;;
1004;SDS011;491;53.480;10.174;2023-07-29T03:55:13;9.43;;;8.53;;
1004;SDS011;491;53.480;10.174;2023-07-29T03:57:39;9.37;;;8.47;;
1004;SDS011;491;53.480;10.174;2023-07-29T04:00:05;11.00;;;9.23;;
1004;SDS011;491;53.480;10.174;2023-07-29T04:02:31;9.40;;;8.47;;
1004;SDS011;491;53.480;10.174;2023-07-29T04:04:57;14.00;;;11.70;;
1004;SDS011;491;53.480;10.174;2023-07-29T04:07:23;11.67;;;10.57;;
1004;SDS011;491;53.480;10.174;2023-07-29T04:09:49;12.50;;;9.50;;
1004;SDS011;491;53.480;10.174;2023-07-29T04:12:15;11.33;;;9.50;;
1004;SDS011;491;53.480;10.174;2023-07-29T04:14:41;10.03;;;9.00;;
1004;SDS011;491;53.480;10.174;2023-07-29T04:17:07;12.50;;;8.87;;
1004;SDS011;491;53.480;10.174;2023-07-29T04:19:33;9.47;;;7.97;;
1004;SDS011;491;53.480;10.174;2023-07-29T04:21:59;11.13;;;8.47;;
1004;SDS011;491;53.480;10.174;2023-07-29T04:24:25;10.63;;;8.67;;
1004;SDS011;491;53.480;10.174;2023-07-29T04:26:51;10.13;;;7.87;;
1004;SDS011;491;53.480;10.174;2023-07-29T04:29:17;10.40;;;8.90;;
1004;SDS011;491;53.480;10.174;2023-07-29T04:31:42;10.30;;;8.13;;
1004;SDS011;491;53.480;10.174;2023-07-29T04:34:08;9.47;;;8.53;;
1004;SDS011;491;53.480;10.174;2023-07-29T04:36:40;10.77;;;7.77;;
1004;SDS011;491;53.480;10.174;2023-07-29T04:39:06;10.90;;;9.40;;
1004;SDS011;491;53.480;10.174;2023-07-29T04:41:32;9.80;;;8.80;;
1004;SDS011;491;53.480;10.174;2023-07-29T04:43:58;10.70;;;9.60;;
1004;SDS011;491;53.480;10.174;2023-07-29T04:46:24;11.90;;;10.03;;
1004;SDS011;491;53.480;10.174;2023-07-29T04:48:50;10.70;;;9.60;;
1004;SDS011;491;53.480;10.174;2023-07-29T04:51:16;14.00;;;12.37;;
1004;SDS011;491;53.480;10.174;2023-07-29T04:53:42;11.87;;;10.70;;
1004;SDS011;491;53.480;10.174;2023-07-29T04:56:08;12.83;;;11.50;;
1004;SDS011;491;53.480;10.174;2023-07-29T04:58:34;14.80;;;12.77;;
1004;SDS011;491;53.480;10.174;2023-07-29T05:01:01;13.40;;;11.50;;
1004;SDS011;491;53.480;10.174;2023-07-29T05:03:27;15.27;;;13.67;;
1004;SDS011;491;53.480;10.174;2023-07-29T05:05:53;14.10;;;12.70;;
1004;SDS011;491;53.480;10.174;2023-07-29T05:08:20;16.90;;;13.63;;
1004;SDS011;491;53.480;10.174;2023-07-29T05:10:49;15.67;;;14.07;;
1004;SDS011;491;53.480;10.174;2023-07-29T05:13:15;17.80;;;14.80;;
1004;SDS011;491;53.480;10.174;2023-07-29T05:15:41;18.13;;;14.50;;
1004;SDS011;491;53.480;10.174;2023-07-29T05:18:07;16.63;;;14.60;;
1004;SDS011;491;53.480;10.174;2023-07-29T05:20:33;19.63;;;17.10;;
1004;SDS011;491;53.480;10.174;2023-07-29T05:22:59;20.63;;;17.50;;
1004;SDS011;491;53.480;10.174;2023-07-29T05:25:25;16.10;;;13.27;;
1004;SDS011;491;53.480;10.174;2023-07-29T05:27:51;14.13;;;12.30;;
1004;SDS011;491;53.480;10.174;2023-07-29T05:30:17;17.47;;;14.67;;
1004;SDS011;491;53.480;10.174;2023-07-29T05:32:43;20.70;;;16.77;;
1004;SDS011;491;53.480;10.174;2023-07-29T05:35:10;21.73;;;18.33;;
1004;SDS011;491;53.480;10.174;2023-07-29T05:37:39;22.50;;;19.00;;
1004;SDS011;491;53.480;10.174;2023-07-29T05:40:05;21.00;;;17.50;;
1004;SDS011;491;53.480;10.174;2023-07-29T05:42:32;19.93;;;17.73;;
1004;SDS011;491;53.480;10.174;2023-07-29T05:44:57;18.70;;;16.60;;
1004;SDS011;491;53.480;10.174;2023-07-29T05:47:23;18.00;;;15.70;;
1004;SDS011;491;53.480;10.174;2023-07-29T05:49:49;19.43;;;17.37;;
1004;SDS011;491;53.480;10.174;2023-07-29T05:52:15;18.57;;;16.87;;
1004;SDS011;491;53.480;10.174;2023-07-29T05:54:41;18.73;;;16.60;;
1004;SDS011;491;53.480;10.174;2023-07-29T05:57:08;19.13;;;17.23;;
1004;SDS011;491;53.480;10.174;2023-07-29T05:59:34;17.37;;;15.67;;
1004;SDS011;491;53.480;10.174;2023-07-29T06:02:00;16.60;;;14.90;;
1004;SDS011;491;53.480;10.174;2023-07-29T06:04:26;17.67;;;16.00;;
1004;SDS011;491;53.480;10.174;2023-07-29T06:06:52;17.13;;;15.47;;
1004;SDS011;491;53.480;10.174;2023-07-29T06:09:18;17.57;;;15.87;;
1004;SDS011;491;53.480;10.174;2023-07-29T06:11:44;15.13;;;13.80;;
1004;SDS011;491;53.480;10.174;2023-07-29T06:14:10;16.80;;;15.10;;
1004;SDS011;491;53.480;10.174;2023-07-29T06:16:45;14.93;;;13.47;;
1004;SDS011;491;53.480;10.174;2023-07-29T06:19:14;15.27;;;13.70;;
1004;SDS011;491;53.480;10.174;2023-07-29T06:21:39;16.13;;;14.63;;
1004;SDS011;491;53.480;10.174;2023-07-29T06:24:05;15.27;;;13.77;;
1004;SDS011;491;53.480;10.174;2023-07-29T06:26:31;17.27;;;15.53;;
1004;SDS011;491;53.480;10.174;2023-07-29T06:28:57;16.87;;;15.17;;
1004;SDS011;491;53.480;10.174;2023-07-29T06:31:23;17.83;;;15.80;;
1004;SDS011;491;53.480;10.174;2023-07-29T06:33:49;18.33;;;16.60;;
1004;SDS011;491;53.480;10.174;2023-07-29T06:36:15;16.50;;;14.90;;
1004;SDS011;491;53.480;10.174;2023-07-29T06:38:41;16.57;;;14.90;;
1004;SDS011;491;53.480;10.174;2023-07-29T06:41:07;16.23;;;14.30;;
1004;SDS011;491;53.480;10.174;2023-07-29T06:43:33;15.23;;;13.90;;
1004;SDS011;491;53.480;10.174;2023-07-29T06:45:59;15.33;;;13.73;;
1004;SDS011;491;53.480;10.174;2023-07-29T06:48:25;18.13;;;16.33;;
1004;SDS011;491;53.480;10.174;2023-07-29T06:50:51;16.50;;;15.00;;
1004;SDS011;491;53.480;10.174;2023-07-29T06:53:17;15.00;;;13.53;;
1004;SDS011;491;53.480;10.174;2023-07-29T06:55:43;14.37;;;12.90;;
1004;SDS011;491;53.480;10.174;2023-07-29T06:58:10;13.30;;;11.97;;
1004;SDS011;491;53.480;10.174;2023-07-29T07:00:36;13.03;;;11.73;;
1004;SDS011;491;53.480;10.174;2023-07-29T07:03:04;12.60;;;11.40;;
1004;SDS011;491;53.480;10.174;2023-07-29T07:05:30;10.70;;;9.80;;
1004;SDS011;491;53.480;10.174;2023-07-29T07:07:56;11.60;;;10.43;;
1004;SDS011;491;53.480;10.174;2023-07-29T07:10:22;10.90;;;9.47;;
1004;SDS011;491;53.480;10.174;2023-07-29T07:12:50;11.10;;;10.00;;
1004;SDS011;491;53.480;10.174;2023-07-29T07:15:16;10.90;;;9.80;;
1004;SDS011;491;53.480;10.174;2023-07-29T07:17:42;13.10;;;11.57;;
1004;SDS011;491;53.480;10.174;2023-07-29T07:20:08;11.57;;;10.40;;
1004;SDS011;491;53.480;10.174;2023-07-29T07:22:34;13.90;;;9.60;;
1004;SDS011;491;53.480;10.174;2023-07-29T07:25:00;10.60;;;9.50;;
1004;SDS011;491;53.480;10.174;2023-07-29T07:27:26;9.50;;;8.60;;
1004;SDS011;491;53.480;10.174;2023-07-29T07:29:52;9.57;;;8.67;;
1004;SDS011;491;53.480;10.174;2023-07-29T07:32:18;9.93;;;8.73;;
1004;SDS011;491;53.480;10.174;2023-07-29T07:34:44;9.53;;;8.43;;
1004;SDS011;491;53.480;10.174;2023-07-29T07:37:10;13.30;;;9.53;;
1004;SDS011;491;53.480;10.174;2023-07-29T07:39:36;9.87;;;8.77;;
1004;SDS011;491;53.480;10.174;2023-07-29T07:42:01;8.63;;;7.73;;
1004;SDS011;491;53.480;10.174;2023-07-29T07:44:27;8.13;;;6.93;;
1004;SDS011;491;53.480;10.174;2023-07-29T07:46:53;8.90;;;7.17;;
1004;SDS011;491;53.480;10.174;2023-07-29T07:49:19;8.20;;;6.97;;
1004;SDS011;491;53.480;10.174;2023-07-29T07:51:45;8.90;;;8.10;;
1004;SDS011;491;53.480;10.174;2023-07-29T07:54:11;8.40;;;6.70;;
1004;SDS011;491;53.480;10.174;2023-07-29T07:56:37;7.70;;;6.17;;
1004;SDS011;491;53.480;10.174;2023-07-29T07:59:03;7.53;;;6.83;;
1004;SDS011;491;53.480;10.174;2023-07-29T08:01:35;6.40;;;5.80;;
1004;SDS011;491;53.480;10.174;2023-07-29T08:04:01;7.10;;;5.80;;
1004;SDS011;491;53.480;10.174;2023-07-29T08:06:27;6.53;;;4.77;;
1004;SDS011;491;53.480;10.174;2023-07-29T08:08:53;6.07;;;4.07;;
1004;SDS011;491;53.480;10.174;2023-07-29T08:11:19;5.27;;;4.70;;
1004;SDS011;491;53.480;10.174;2023-07-29T08:13:45;5.70;;;5.10;;
1004;SDS011;491;53.480;10.174;2023-07-29T08:16:11;6.90;;;6.20;;
1004;SDS011;491;53.480;10.174;2023-07-29T08:18:37;6.97;;;6.27;;
1004;SDS011;491;53.480;10.174;2023-07-29T08:21:03;6.20;;;5.60;;
1004;SDS011;491;53.480;10.174;2023-07-29T08:23:30;5.83;;;5.33;;
1004;SDS011;491;53.480;10.174;2023-07-29T08:25:59;6.90;;;5.10;;
1004;SDS011;491;53.480;10.174;2023-07-29T08:28:30;5.43;;;4.93;;
1004;SDS011;491;53.480;10.174;2023-07-29T08:30:57;7.67;;;5.60;;
1004;SDS011;491;53.480;10.174;2023-07-29T08:33:23;5.30;;;4.80;;
1004;SDS011;491;53.480;10.174;2023-07-29T08:35:49;6.20;;;5.70;;
1004;SDS011;491;53.480;10.174;2023-07-29T08:38:15;5.80;;;5.03;;
1004;SDS011;491;53.480;10.174;2023-07-29T08:40:52;5.80;;;5.20;;
1004;SDS011;491;53.480;10.174;2023-07-29T08:43:19;5.50;;;5.00;;
1004;SDS011;491;53.480;10.174;2023-07-29T08:45:46;8.00;;;5.57;;
1004;SDS011;491;53.480;10.174;2023-07-29T08:48:13;7.97;;;6.00;;
1004;SDS011;491;53.480;10.174;2023-07-29T08:50:42;5.33;;;4.93;;
1004;SDS011;491;53.480;10.174;2023-07-29T08:53:09;8.30;;;6.33;;
1004;SDS011;491;53.480;10.174;2023-07-29T08:55:35;7.23;;;6.63;;
1004;SDS011;491;53.480;10.174;2023-07-29T08:58:02;6.80;;;5.70;;
1004;SDS011;491;53.480;10.174;2023-07-29T09:00:28;8.03;;;6.50;;
1004;SDS011;491;53.480;10.174;2023-07-29T09:02:54;6.13;;;5.63;;
1004;SDS011;491;53.480;10.174;2023-07-29T09:05:22;7.77;;;5.90;;
1004;SDS011;491;53.480;10.174;2023-07-29T09:07:49;6.20;;;5.60;;
1004;SDS011;491;53.480;10.174;2023-07-29T09:10:17;6.43;;;5.93;;
1004;SDS011;491;53.480;10.174;2023-07-29T09:12:47;6.07;;;5.67;;
1004;SDS011;491;53.480;10.174;2023-07-29T09:15:13;6.13;;;5.53;;
1004;SDS011;491;53.480;10.174;2023-07-29T09:17:41;6.30;;;5.70;;
1004;SDS011;491;53.480;10.174;2023-07-29T09:20:07;5.30;;;4.80;;
1004;SDS011;491;53.480;10.174;2023-07-29T09:22:35;6.90;;;6.40;;
1004;SDS011;491;53.480;10.174;2023-07-29T09:25:01;6.43;;;5.83;;
1004;SDS011;491;53.480;10.174;2023-07-29T09:27:27;6.30;;;5.70;;
1004;SDS011;491;53.480;10.174;2023-07-29T09:29:54;5.97;;;5.43;;
1004;SDS011;491;53.480;10.174;2023-07-29T09:32:21;5.37;;;4.97;;
1004;SDS011;491;53.480;10.174;2023-07-29T09:34:47;6.50;;;6.00;;
1004;SDS011;491;53.480;10.174;2023-07-29T09:37:22;6.03;;;5.00;;
1004;SDS011;491;53.480;10.174;2023-07-29T09:39:49;6.73;;;5.90;;
1004;SDS011;491;53.480;10.174;2023-07-29T09:42:18;6.37;;;4.93;;
1004;SDS011;491;53.480;10.174;2023-07-29T09:44:44;6.93;;;6.43;;
1004;SDS011;491;53.480;10.174;2023-07-29T09:47:18;6.70;;;5.50;;
1004;SDS011;491;53.480;10.174;2023-07-29T09:49:44;6.33;;;5.70;;
1004;SDS011;491;53.480;10.174;2023-07-29T09:52:10;6.37;;;5.37;;
1004;SDS011;491;53.480;10.174;2023-07-29T09:54:36;5.83;;;5.27;;
1004;SDS011;491;53.480;10.174;2023-07-29T09:57:02;5.50;;;5.00;;
1004;SDS011;491;53.480;10.174;2023-07-29T09:59:33;4.53;;;4.13;;
1004;SDS011;491;53.480;10.174;2023-07-29T10:01:59;5.00;;;4.43;;
1004;SDS011;491;53.480;10.174;2023-07-29T10:04:25;6.20;;;4.93;;
1004;SDS011;491;53.480;10.174;2023-07-29T10:06:52;5.50;;;5.00;;
1004;SDS011;491;53.480;10.174;2023-07-29T10:09:18;5.73;;;5.20;;
1004;SDS011;491;53.480;10.174;2023-07-29T10:11:45;5.03;;;4.53;;
1004;SDS011;491;53.480;10.174;2023-07-29T10:14:11;5.20;;;4.70;;
1004;SDS011;491;53.480;10.174;2023-07-29T10:16:39;4.87;;;4.30;;
1004;SDS011;491;53.480;10.174;2023-07-29T10:19:06;4.43;;;4.07;;
1004;SDS011;491;53.480;10.174;2023-07-29T10:21:33;5.67;;;4.53;;
1004;SDS011;491;53.480;10.174;2023-07-29T10:24:01;5.00;;;4.57;;
1004;SDS011;491;53.480;10.174;2023-07-29T10:26:28;6.33;;;3.73;;
1004;SDS011;491;53.480;10.174;2023-07-29T10:28:58;5.23;;;4.67;;
1004;SDS011;491;53.480;10.174;2023-07-29T10:31:29;4.40;;;4.00;;
1004;SDS011;491;53.480;10.174;2023-07-29T10:33:55;3.90;;;3.50;;
1004;SDS011;491;53.480;10.174;2023-07-29T10:36:21;5.43;;;4.27;;
1004;SDS011;491;53.480;10.174;2023-07-29T10:38:47;3.37;;;3.07;;
1004;SDS011;491;53.480;10.174;2023-07-29T10:41:13;4.57;;;4.13;;
1004;SDS011;491;53.480;10.174;2023-07-29T10:43:39;3.20;;;2.90;;
1004;SDS011;491;53.480;10.174;2023-07-29T10:46:21;5.30;;;3.10;;
1004;SDS011;491;53.480;10.174;2023-07-29T10:53:52;5.77;;;4.50;;
1004;SDS011;491;53.480;10.174;2023-07-29T10:56:24;3.20;;;2.87;;
1004;SDS011;491;53.480;10.174;2023-07-29T10:58:50;3.50;;;3.20;;
1004;SDS011;491;53.480;10.174;2023-07-29T11:01:26;3.40;;;2.70;;
1004;SDS011;491;53.480;10.174;2023-07-29T11:04:21;4.07;;;3.33;;
1004;SDS011;491;53.480;10.174;2023-07-29T11:09:41;2.13;;;1.80;;
1004;SDS011;491;53.480;10.174;2023-07-29T11:12:50;2.73;;;2.50;;
1004;SDS011;491;53.480;10.174;2023-07-29T11:14:56;3.03;;;2.13;;
1004;SDS011;491;53.480;10.174;2023-07-29T11:17:22;2.50;;;2.13;;
1004;SDS011;491;53.480;10.174;2023-07-29T11:19:48;4.10;;;1.60;;
1004;SDS011;491;53.480;10.174;2023-07-29T11:22:15;2.33;;;1.60;;
1004;SDS011;491;53.480;10.174;2023-07-29T11:24:41;2.37;;;2.07;;
1004;SDS011;491;53.480;10.174;2023-07-29T11:27:11;1.87;;;1.53;;
1004;SDS011;491;53.480;10.174;2023-07-29T11:29:37;2.67;;;1.20;;
1004;SDS011;491;53.480;10.174;2023-07-29T11:32:03;1.50;;;1.40;;
1004;SDS011;491;53.480;10.174;2023-07-29T11:34:32;1.40;;;0.90;;
1004;SDS011;491;53.480;10.174;2023-07-29T11:36:58;1.70;;;1.00;;
1004;SDS011;491;53.480;10.174;2023-07-29T11:39:24;6.40;;;1.90;;
1004;SDS011;491;53.480;10.174;2023-07-29T11:41:49;3.33;;;1.03;;
1004;SDS011;491;53.480;10.174;2023-07-29T11:44:18;1.80;;;1.30;;
1004;SDS011;491;53.480;10.174;2023-07-29T11:46:44;4.83;;;1.77;;
1004;SDS011;491;53.480;10.174;2023-07-29T11:49:10;2.23;;;1.40;;
1004;SDS011;491;53.480;10.174;2023-07-29T11:51:36;3.13;;;1.60;;
1004;SDS011;491;53.480;10.174;2023-07-29T11:54:02;2.00;;;1.80;;
1004;SDS011;491;53.480;10.174;2023-07-29T11:56:29;2.03;;;1.10;;
1004;SDS011;491;53.480;10.174;2023-07-29T11:58:58;2.60;;;1.93;;
1004;SDS011;491;53.480;10.174;2023-07-29T12:01:24;2.43;;;1.60;;
1004;SDS011;491;53.480;10.174;2023-07-29T12:03:50;1.37;;;0.80;;
1004;SDS011;491;53.480;10.174;2023-07-29T12:06:16;1.83;;;1.33;;
1004;SDS011;491;53.480;10.174;2023-07-29T12:08:42;5.03;;;1.80;;
1004;SDS011;491;53.480;10.174;2023-07-29T12:11:08;3.77;;;1.43;;
1004;SDS011;491;53.480;10.174;2023-07-29T12:13:38;1.77;;;1.20;;
1004;SDS011;491;53.480;10.174;2023-07-29T12:16:04;2.03;;;1.20;;
1004;SDS011;491;53.480;10.174;2023-07-29T12:18:30;2.90;;;1.80;;
1004;SDS011;491;53.480;10.174;2023-07-29T12:21:02;3.03;;;2.43;;
1004;SDS011;491;53.480;10.174;2023-07-29T12:23:28;2.73;;;2.53;;
1004;SDS011;491;53.480;10.174;2023-07-29T12:25:58;3.73;;;2.60;;
1004;SDS011;491;53.480;10.174;2023-07-29T12:28:25;2.40;;;1.80;;
1004;SDS011;491;53.480;10.174;2023-07-29T12:30:54;3.13;;;2.33;;
1004;SDS011;491;53.480;10.174;2023-07-29T12:33:29;2.00;;;1.50;;
1004;SDS011;491;53.480;10.174;2023-07-29T12:35:56;2.30;;;1.57;;
1004;SDS011;491;53.480;10.174;2023-07-29T12:38:22;2.23;;;2.03;;
1004;SDS011;491;53.480;10.174;2023-07-29T12:40:47;2.00;;;1.77;;
1004;SDS011;491;53.480;10.174;2023-07-29T12:43:13;3.10;;;1.60;;
1004;SDS011;491;53.480;10.174;2023-07-29T12:45:39;2.50;;;2.00;;
1004;SDS011;491;53.480;10.174;2023-07-29T12:48:06;1.60;;;0.83;;
1004;SDS011;491;53.480;10.174;2023-07-29T12:50:32;2.70;;;1.50;;
1004;SDS011;491;53.480;10.174;2023-07-29T12:52:58;2.47;;;1.30;;
1004;SDS011;491;53.480;10.174;2023-07-29T12:55:24;2.50;;;1.47;;
1004;SDS011;491;53.480;10.174;2023-07-29T12:57:50;1.07;;;0.60;;
1004;SDS011;491;53.480;10.174;2023-07-29T13:00:16;2.40;;;1.50;;
1004;SDS011;491;53.480;10.174;2023-07-29T13:02:42;1.70;;;1.17;;
1004;SDS011;491;53.480;10.174;2023-07-29T13:05:11;1.50;;;1.20;;
1004;SDS011;491;53.480;10.174;2023-07-29T13:07:38;1.80;;;1.33;;
1004;SDS011;491;53.480;10.174;2023-07-29T13:10:04;1.80;;;1.03;;
1004;SDS011;491;53.480;10.174;2023-07-29T13:12:30;3.60;;;1.73;;
1004;SDS011;491;53.480;10.174;2023-07-29T13:14:56;1.03;;;0.60;;
1004;SDS011;491;53.480;10.174;2023-07-29T13:17:22;1.63;;;1.23;;
1004;SDS011;491;53.480;10.174;2023-07-29T13:19:48;1.93;;;0.50;;
1004;SDS011;491;53.480;10.174;2023-07-29T13:22:14;1.50;;;0.90;;
1004;SDS011;491;53.480;10.174;2023-07-29T13:24:46;4.00;;;1.10;;
1004;SDS011;491;53.480;10.174;2023-07-29T13:27:12;5.10;;;1.23;;
1004;SDS011;491;53.480;10.174;2023-07-29T13:29:39;1.00;;;0.63;;
1004;SDS011;491;53.480;10.174;2023-07-29T13:32:05;2.03;;;0.90;;
1004;SDS011;491;53.480;10.174;2023-07-29T13:34:31;2.37;;;1.30;;
1004;SDS011;491;53.480;10.174;2023-07-29T13:36:59;2.50;;;0.80;;
1004;SDS011;491;53.480;10.174;2023-07-29T13:39:25;2.97;;;1.50;;
1004;SDS011;491;53.480;10.174;2023-07-29T13:41:50;2.17;;;1.00;;
1004;SDS011;491;53.480;10.174;2023-07-29T13:44:16;2.13;;;1.03;;
1004;SDS011;491;53.480;10.174;2023-07-29T13:46:42;1.40;;;0.93;;
1004;SDS011;491;53.480;10.174;2023-07-29T13:49:14;1.40;;;0.90;;
1004;SDS011;491;53.480;10.174;2023-07-29T13:51:40;2.67;;;1.47;;
1004;SDS011;491;53.480;10.174;2023-07-29T13:54:07;1.83;;;1.50;;
1004;SDS011;491;53.480;10.174;2023-07-29T13:56:36;2.43;;;1.90;;
1004;SDS011;491;53.480;10.174;2023-07-29T13:59:02;1.83;;;1.37;;
1004;SDS011;491;53.480;10.174;2023-07-29T14:01:28;2.63;;;1.63;;
1004;SDS011;491;53.480;10.174;2023-07-29T14:03:54;3.30;;;1.60;;
1004;SDS011;491;53.480;10.174;2023-07-29T14:06:20;1.87;;;1.13;;
1004;SDS011;491;53.480;10.174;2023-07-29T14:08:46;2.03;;;0.93;;
1004;SDS011;491;53.480;10.174;2023-07-29T14:11:12;2.00;;;1.50;;
1004;SDS011;491;53.480;10.174;2023-07-29T14:13:37;1.50;;;1.20;;
1004;SDS011;491;53.480;10.174;2023-07-29T14:16:03;3.90;;;1.73;;
1004;SDS011;491;53.480;10.174;2023-07-29T14:18:29;2.43;;;1.80;;
1004;SDS011;491;53.480;10.174;2023-07-29T14:20:55;1.93;;;1.33;;
1004;SDS011;491;53.480;10.174;2023-07-29T14:23:21;1.83;;;1.40;;
1004;SDS011;491;53.480;10.174;2023-07-29T14:25:50;2.00;;;1.47;;
1004;SDS011;491;53.480;10.174;2023-07-29T14:28:16;3.03;;;1.30;;
1004;SDS011;491;53.480;10.174;2023-07-29T14:30:42;2.73;;;1.70;;
1004;SDS011;491;53.480;10.174;2023-07-29T14:33:08;2.10;;;1.30;;
1004;SDS011;491;53.480;10.174;2023-07-29T14:35:34;2.60;;;1.30;;
1004;SDS011;491;53.480;10.174;2023-07-29T14:37:59;2.33;;;1.00;;
1004;SDS011;491;53.480;10.174;2023-07-29T14:40:25;1.50;;;1.17;;
1004;SDS011;491;53.480;10.174;2023-07-29T14:42:52;3.97;;;1.23;;
1004;SDS011;491;53.480;10.174;2023-07-29T14:45:18;1.90;;;0.60;;
1004;SDS011;491;53.480;10.174;2023-07-29T14:47:44;1.53;;;1.43;;
1004;SDS011;491;53.480;10.174;2023-07-29T14:50:11;2.10;;;0.90;;
1004;SDS011;491;53.480;10.174;2023-07-29T14:52:37;1.60;;;1.10;;
1004;SDS011;491;53.480;10.174;2023-07-29T14:55:03;1.93;;;1.07;;
1004;SDS011;491;53.480;10.174;2023-07-29T14:57:29;1.30;;;0.50;;
1004;SDS011;491;53.480;10.174;2023-07-29T14:59:54;2.10;;;0.50;;
1004;SDS011;491;53.480;10.174;2023-07-29T15:02:20;1.10;;;0.67;;
1004;SDS011;491;53.480;10.174;2023-07-29T15:04:47;2.10;;;0.70;;
1004;SDS011;491;53.480;10.174;2023-07-29T15:07:13;4.80;;;0.80;;
1004;SDS011;491;53.480;10.174;2023-07-29T15:09:39;1.13;;;0.77;;
1004;SDS011;491;53.480;10.174;2023-07-29T15:12:05;1.63;;;0.80;;
1004;SDS011;491;53.480;10.174;2023-07-29T15:14:34;1.20;;;0.90;;
1004;SDS011;491;53.480;10.174;2023-07-29T15:17:00;1.50;;;0.60;;